This is the latest recevied weather packets stored in our database for station/object W4BOD. If no packets are shown the sender has not sent any weather packets the latest 1 day(s).
| Time | Temp. | Humidity | Pressure | Rain* | Wind** | Luminosity | Snow |
|---|---|---|---|---|---|---|---|
| 1836274738 | 21.67° C | 77% | 1017.4 hPa | 0 mm | 0 m/s | 0 W/m² | - |
| 1836274435 | 21.67° C | 76% | 1017.3 hPa | 0 mm | 0 m/s | 0 W/m² | - |
| 1836274289 | 21.11° C | 77% | 1017.4 hPa | 0 mm | 0 m/s | 0 W/m² | - |
| 1836274133 | 22.22° C | 75% | 1017.2 hPa | 0 mm | 0 m/s | 0 W/m² | - |
| 1778027360 | 20.56° C | 73% | 1008.8 hPa | 0 mm | 1.34 m/s, 284° | 2 W/m² | - |
| 1778027056 | 20.56° C | 73% | 1008.8 hPa | 0 mm | 1.34 m/s, 284° | 2 W/m² | - |
| 1778026751 | 20.56° C | 72% | 1008.1 hPa | 0 mm | 0 m/s | 1 W/m² | - |
| 1778026449 | 20° C | 72% | 1008.1 hPa | 0 mm | 1.34 m/s, 233° | 2 W/m² | - |
| 1778026146 | 20° C | 73% | 1008 hPa | 0 mm | 0.89 m/s, 250° | 5 W/m² | - |
| 1778025843 | 19.44° C | 75% | 1007.9 hPa | 0 mm | 0 m/s | 6 W/m² | - |
| 1778025540 | 18.89° C | 80% | 1008.1 hPa | 0 mm | 0.45 m/s, 324° | 6 W/m² | - |
| 1778025238 | 18.89° C | 82% | 1008 hPa | 0 mm | 0 m/s | 6 W/m² | - |
| 1778024934 | 18.89° C | 80% | 1008.3 hPa | 0 mm | 0.45 m/s, 300° | 8 W/m² | - |
| 1778024632 | 18.89° C | 84% | 1008.4 hPa | 0 mm | 0 m/s | 8 W/m² | - |
| 1778024328 | 18.89° C | 84% | 1008.3 hPa | 0 mm | 0 m/s | 8 W/m² | - |
| 1778024027 | 18.89° C | 83% | 1008.2 hPa | 0 mm | 0.45 m/s, 359° | 7 W/m² | - |
| 1778023724 | 18.89° C | 82% | 1008.3 hPa | 0 mm | 0.89 m/s, 8° | 14 W/m² | - |
| 1778023422 | 18.89° C | 84% | 1008.1 hPa | 0 mm | 0.89 m/s, 347° | 15 W/m² | - |
| 1778023118 | 18.89° C | 77% | 1008.1 hPa | 0 mm | 0 m/s | 15 W/m² | - |
| 1778022816 | 18.89° C | 77% | 1008.1 hPa | 0 mm | 0.89 m/s, 50° | 16 W/m² | - |
| 1778022514 | 18.89° C | 78% | 1008.5 hPa | 0 mm | 0.45 m/s, 28° | 19 W/m² | - |
| 1778022210 | 18.89° C | 77% | 1008.7 hPa | 0 mm | 0.89 m/s, 253° | 25 W/m² | - |
| 1778021907 | 20° C | 76% | 1008.5 hPa | 1.27 mm | 0.45 m/s, 292° | 43 W/m² | - |
| 1778021605 | 21.11° C | 73% | 1008.4 hPa | 1.27 mm | 0 m/s | 48 W/m² | - |
| 1778021299 | 21.67° C | 64% | 1008.7 hPa | 0 mm | 1.34 m/s, 213° | 63 W/m² | - |
* Rain latest hour (hover to see other rain measurements)
** Current wind speed in m/s (hover to see current wind gust speed)